Time;durP1;ratioP1;P1;durP2;ratioP2;P2;SDS_P1;SDS_P2;PMS_P1;PMS_P2;Temp;Humidity;BMP_temperature;BMP_pressure;BME280_temperature;BME280_humidity;BME280_pressure;Samples;Min_cycle;Max_cycle;Signal;HPM_P1;HPM_P2
2023/03/30 00:00:52;;;;;;;7.97;2.25;;;14.00;99.90;;;;;;5075798;28;20119;-78
2023/03/30 00:03:18;;;;;;;6.90;2.50;;;14.00;99.90;;;;;;5093379;28;20036;-78
2023/03/30 00:05:45;;;;;;;9.90;2.38;;;14.00;99.90;;;;;;5093779;28;20025;-77
2023/03/30 00:08:13;;;;;;;8.07;2.67;;;14.00;99.90;;;;;;5075241;28;20032;-78
2023/03/30 00:10:39;;;;;;;8.35;2.60;;;14.00;99.90;;;;;;5093507;28;20024;-78
2023/03/30 00:13:06;;;;;;;9.75;2.42;;;13.90;99.90;;;;;;5093381;28;20036;-77
2023/03/30 00:15:33;;;;;;;8.43;2.53;;;14.00;99.90;;;;;;5093445;28;20028;-78
2023/03/30 00:18:00;;;;;;;5.93;2.40;;;13.90;99.90;;;;;;5075096;28;20025;-80
2023/03/30 00:20:26;;;;;;;6.47;2.10;;;13.90;99.90;;;;;;5075465;28;20028;-78
2023/03/30 00:22:52;;;;;;;8.73;2.75;;;13.90;99.90;;;;;;5093402;28;20040;-78
2023/03/30 00:25:18;;;;;;;6.05;2.25;;;13.90;99.90;;;;;;5074740;28;20031;-77
2023/03/30 00:27:44;;;;;;;7.90;2.40;;;14.00;99.90;;;;;;5093038;28;20349;-77
2023/03/30 00:30:13;;;;;;;7.10;2.85;;;13.90;99.90;;;;;;5092894;28;20111;-78
2023/03/30 00:32:39;;;;;;;7.20;2.42;;;13.90;99.90;;;;;;5074789;28;20052;-78
2023/03/30 00:35:05;;;;;;;10.15;2.53;;;13.90;99.90;;;;;;5074912;28;20024;-77
2023/03/30 00:37:31;;;;;;;5.97;2.42;;;13.90;99.90;;;;;;5075073;28;20036;-78
2023/03/30 00:39:57;;;;;;;7.45;2.60;;;13.90;99.90;;;;;;5092758;28;20035;-78
2023/03/30 00:42:23;;;;;;;6.90;2.10;;;13.90;99.90;;;;;;5092698;28;20044;-78
2023/03/30 00:45:07;;;;;;;5.05;1.90;;;13.90;99.90;;;;;;5092550;28;20031;-77
2023/03/30 00:47:37;;;;;;;4.85;2.17;;;13.90;99.90;;;;;;5092931;28;20032;-78
2023/03/30 00:50:04;;;;;;;4.10;1.42;;;13.90;99.90;;;;;;5092794;28;20468;-77
2023/03/30 00:52:32;;;;;;;5.95;1.63;;;13.90;99.90;;;;;;5092933;28;20036;-77
2023/03/30 00:54:58;;;;;;;6.65;1.73;;;13.90;99.90;;;;;;5058444;28;20467;-78
2023/03/30 00:57:25;;;;;;;4.53;1.52;;;13.90;99.90;;;;;;5058404;28;20380;-77
2023/03/30 00:59:54;;;;;;;6.18;1.98;;;13.90;99.90;;;;;;5074723;28;20075;-77
2023/03/30 01:02:20;;;;;;;7.70;1.80;;;13.90;99.90;;;;;;5093024;28;20028;-77
2023/03/30 01:04:47;;;;;;;4.50;1.20;;;13.90;99.90;;;;;;5041716;28;20086;-77
2023/03/30 01:07:14;;;;;;;5.80;1.85;;;13.90;99.90;;;;;;5092921;28;20042;-77
2023/03/30 01:09:41;;;;;;;6.82;1.33;;;13.90;99.90;;;;;;5074698;28;20039;-77
2023/03/30 01:12:07;;;;;;;6.45;1.83;;;13.90;99.90;;;;;;5093042;28;20460;-77
2023/03/30 01:14:34;;;;;;;6.20;1.45;;;13.90;99.90;;;;;;5074432;28;20032;-77
2023/03/30 01:17:12;;;;;;;4.60;1.45;;;13.90;99.90;;;;;;5074867;28;20472;-77
2023/03/30 01:19:47;;;;;;;4.10;1.35;;;13.90;99.90;;;;;;5092957;28;20046;-77
2023/03/30 01:22:37;;;;;;;4.82;1.88;;;14.00;99.90;;;;;;5092926;28;20032;-77
2023/03/30 01:25:27;;;;;;;5.82;2.05;;;14.00;99.90;;;;;;5093160;28;20111;-77
2023/03/30 01:28:20;;;;;;;4.55;1.13;;;14.00;99.90;;;;;;5092738;28;20077;-77
2023/03/30 01:31:15;;;;;;;6.85;1.40;;;14.00;99.90;;;;;;5074418;28;20694;-77
2023/03/30 01:34:02;;;;;;;5.75;1.50;;;14.00;99.90;;;;;;5092951;28;20039;-77
2023/03/30 01:36:47;;;;;;;3.97;1.17;;;14.00;99.90;;;;;;5092862;28;20052;-78
2023/03/30 01:39:13;;;;;;;4.57;1.75;;;14.00;99.90;;;;;;5074228;28;20042;-78
2023/03/30 01:41:47;;;;;;;5.55;1.48;;;14.00;99.90;;;;;;5074532;28;20028;-77
2023/03/30 01:44:16;;;;;;;8.10;1.60;;;14.00;99.90;;;;;;5074486;28;20420;-78
2023/03/30 01:46:48;;;;;;;5.03;1.30;;;14.00;99.90;;;;;;5092409;28;20456;-77
2023/03/30 01:49:40;;;;;;;6.78;1.52;;;14.00;99.90;;;;;;5074586;28;20028;-77
2023/03/30 01:52:10;;;;;;;8.88;1.75;;;14.00;99.90;;;;;;5067104;28;20103;-78
2023/03/30 01:54:40;;;;;;;3.47;1.35;;;14.00;99.90;;;;;;5074277;28;20027;-77
2023/03/30 01:57:11;;;;;;;7.05;1.77;;;13.90;99.90;;;;;;5095824;28;20024;-77
2023/03/30 01:59:42;;;;;;;3.92;1.63;;;13.90;99.90;;;;;;5095828;28;20028;-77
2023/03/30 02:02:12;;;;;;;7.10;1.83;;;14.00;99.90;;;;;;5095892;28;20031;-77
2023/03/30 02:04:41;;;;;;;4.70;1.73;;;14.00;99.90;;;;;;5096121;28;20028;-77
2023/03/30 02:07:20;;;;;;;4.60;1.30;;;14.00;99.90;;;;;;5095813;28;20028;-78
2023/03/30 02:09:49;;;;;;;4.10;1.60;;;13.90;99.90;;;;;;5095321;28;20025;-77
2023/03/30 02:12:16;;;;;;;4.43;1.40;;;13.90;99.90;;;;;;5095645;28;20158;-77
2023/03/30 02:14:42;;;;;;;5.18;1.60;;;14.00;99.90;;;;;;5077535;28;20032;-76
2023/03/30 02:17:13;;;;;;;2.55;1.20;;;13.90;99.90;;;;;;5077441;28;20032;-78
2023/03/30 02:19:38;;;;;;;4.03;1.42;;;13.90;99.90;;;;;;5077561;28;20528;-75
2023/03/30 02:22:05;;;;;;;2.97;1.38;;;14.00;99.90;;;;;;5095455;28;20115;-75
2023/03/30 02:24:32;;;;;;;5.07;2.00;;;13.90;99.90;;;;;;5077769;28;20100;-76
2023/03/30 02:27:00;;;;;;;5.43;1.55;;;13.90;99.90;;;;;;5095704;28;20020;-75
2023/03/30 02:29:27;;;;;;;5.75;2.28;;;13.90;99.90;;;;;;5095328;28;20117;-77
2023/03/30 02:31:55;;;;;;;4.05;1.70;;;13.90;99.90;;;;;;5060840;28;20046;-75
2023/03/30 02:34:30;;;;;;;5.63;1.48;;;13.80;99.90;;;;;;5073265;28;20114;-76
2023/03/30 02:37:19;;;;;;;5.72;1.73;;;13.80;99.90;;;;;;5075036;28;20033;-76
2023/03/30 02:40:06;;;;;;;3.95;1.20;;;13.80;99.90;;;;;;5074769;28;20024;-76
2023/03/30 02:42:50;;;;;;;4.10;1.50;;;13.80;99.90;;;;;;5075417;28;20107;-77
2023/03/30 02:45:40;;;;;;;6.85;1.13;;;13.80;99.90;;;;;;5073639;28;20491;-76
2023/03/30 02:48:12;;;;;;;5.63;1.25;;;13.80;99.90;;;;;;5075164;28;20024;-76
2023/03/30 02:51:08;;;;;;;5.55;1.42;;;13.80;99.90;;;;;;5074692;28;20457;-78
2023/03/30 02:54:17;;;;;;;4.78;1.40;;;13.70;99.90;;;;;;5074886;28;20118;-76
2023/03/30 02:56:51;;;;;;;4.45;1.13;;;13.70;99.90;;;;;;5052866;28;20040;-76
2023/03/30 02:59:21;;;;;;;4.63;0.82;;;13.70;99.90;;;;;;5073510;28;20028;-76
2023/03/30 03:02:09;;;;;;;5.18;1.08;;;13.80;99.90;;;;;;5074804;28;20036;-76
2023/03/30 03:04:35;;;;;;;4.00;1.02;;;13.80;99.90;;;;;;5074723;28;20026;-77
2023/03/30 03:07:01;;;;;;;6.55;1.75;;;13.80;99.90;;;;;;5074588;28;20031;-77
2023/03/30 03:09:28;;;;;;;6.03;0.90;;;13.80;99.90;;;;;;5055846;28;20033;-78
2023/03/30 03:11:54;;;;;;;1.60;0.55;;;13.80;99.90;;;;;;5074503;28;20078;-77
2023/03/30 03:14:20;;;;;;;2.33;0.57;;;13.80;99.90;;;;;;5074475;28;20481;-76
2023/03/30 03:16:46;;;;;;;2.72;0.57;;;13.80;99.90;;;;;;5074411;28;20039;-76
2023/03/30 03:19:12;;;;;;;2.95;0.68;;;13.90;99.90;;;;;;5074123;28;20037;-76
2023/03/30 03:21:38;;;;;;;2.40;0.63;;;13.90;99.90;;;;;;5074123;28;20047;-76
2023/03/30 03:24:05;;;;;;;5.13;0.80;;;13.90;99.90;;;;;;5073030;28;20384;-76
2023/03/30 03:26:31;;;;;;;5.35;1.60;;;13.90;99.90;;;;;;5074221;28;20468;-76
2023/03/30 03:28:56;;;;;;;3.92;0.75;;;13.90;99.90;;;;;;5072919;28;20108;-76
2023/03/30 03:31:23;;;;;;;4.93;0.60;;;13.90;99.90;;;;;;5072618;28;20040;-76
2023/03/30 03:33:49;;;;;;;3.67;0.77;;;13.90;99.90;;;;;;5072462;28;20056;-76
2023/03/30 03:36:15;;;;;;;4.07;0.80;;;14.00;99.90;;;;;;5055934;28;20055;-76
2023/03/30 03:38:41;;;;;;;5.20;0.80;;;13.90;99.90;;;;;;5055959;28;20465;-77
2023/03/30 03:41:11;;;;;;;3.25;0.65;;;13.90;99.90;;;;;;5072172;28;20035;-77
2023/03/30 03:43:37;;;;;;;2.85;0.70;;;13.90;99.90;;;;;;5073849;28;20028;-77
2023/03/30 03:46:02;;;;;;;3.45;0.82;;;13.90;99.90;;;;;;5072430;28;20082;-76
2023/03/30 03:48:28;;;;;;;4.10;0.68;;;13.90;99.90;;;;;;5073778;28;20051;-77
2023/03/30 03:50:56;;;;;;;3.38;0.90;;;13.90;99.90;;;;;;5072624;28;20059;-76
2023/03/30 03:53:23;;;;;;;5.13;0.88;;;13.90;99.90;;;;;;5073688;28;20036;-76
2023/03/30 03:55:49;;;;;;;3.95;0.77;;;13.90;99.90;;;;;;5072468;28;20430;-76
2023/03/30 03:58:16;;;;;;;3.40;0.60;;;13.80;99.90;;;;;;5072301;28;20059;-77
2023/03/30 04:00:42;;;;;;;4.55;0.75;;;13.80;99.90;;;;;;5071785;28;20116;-76
2023/03/30 04:03:08;;;;;;;3.72;0.77;;;13.80;99.90;;;;;;5072353;28;20037;-76
2023/03/30 04:05:34;;;;;;;3.33;0.75;;;13.80;99.90;;;;;;5072187;28;20020;-76
2023/03/30 04:08:01;;;;;;;5.18;0.80;;;13.70;99.90;;;;;;5073666;28;20085;-76
2023/03/30 04:10:27;;;;;;;3.80;0.57;;;13.70;99.90;;;;;;5072987;28;20025;-77
2023/03/30 04:12:56;;;;;;;3.65;0.80;;;13.80;99.90;;;;;;5055016;28;20047;-76
2023/03/30 04:15:23;;;;;;;2.25;0.47;;;13.80;99.90;;;;;;5072120;28;20037;-76
2023/03/30 04:17:56;;;;;;;4.18;0.50;;;13.80;99.90;;;;;;5072849;28;20032;-78
2023/03/30 04:20:23;;;;;;;3.20;0.50;;;13.80;99.90;;;;;;5072524;28;20043;-78
2023/03/30 04:22:52;;;;;;;3.50;0.60;;;13.80;99.90;;;;;;5072130;28;20040;-78
2023/03/30 04:25:24;;;;;;;4.88;0.60;;;13.80;99.90;;;;;;5071915;28;20060;-79
2023/03/30 04:27:50;;;;;;;3.45;0.85;;;13.80;99.90;;;;;;5073147;28;20516;-78
2023/03/30 04:30:17;;;;;;;3.90;0.30;;;13.80;99.90;;;;;;5071342;28;20155;-79
2023/03/30 04:32:45;;;;;;;5.78;0.60;;;13.80;99.90;;;;;;5071854;28;20527;-78
2023/03/30 04:35:13;;;;;;;1.67;0.30;;;13.80;99.90;;;;;;5092457;28;20097;-78
2023/03/30 04:37:41;;;;;;;2.47;0.50;;;13.80;99.90;;;;;;5074807;28;20024;-78
2023/03/30 04:40:11;;;;;;;3.53;0.40;;;13.80;99.90;;;;;;5075088;28;20445;-78
2023/03/30 04:42:38;;;;;;;4.65;0.73;;;13.80;99.90;;;;;;5074753;28;20032;-78
2023/03/30 04:45:07;;;;;;;1.85;0.50;;;13.80;99.90;;;;;;5075191;28;20036;-79
2023/03/30 04:47:33;;;;;;;3.85;0.60;;;13.80;99.90;;;;;;5074971;28;20115;-78
2023/03/30 04:50:00;;;;;;;3.67;0.43;;;13.80;99.90;;;;;;5092722;28;20057;-78
2023/03/30 04:52:26;;;;;;;2.58;0.47;;;13.80;99.90;;;;;;5093032;28;20036;-79
2023/03/30 04:54:52;;;;;;;3.00;0.57;;;13.80;99.90;;;;;;5093162;28;20035;-78
2023/03/30 04:57:18;;;;;;;4.40;0.50;;;13.80;99.90;;;;;;5093059;28;20036;-78
2023/03/30 04:59:43;;;;;;;3.47;0.73;;;13.80;99.90;;;;;;5074982;28;20028;-78
2023/03/30 05:02:10;;;;;;;2.58;0.70;;;13.70;99.90;;;;;;5074763;28;20036;-78
2023/03/30 05:04:36;;;;;;;5.38;0.80;;;13.70;99.90;;;;;;5093055;28;20024;-78
2023/03/30 05:07:02;;;;;;;5.72;0.90;;;13.70;99.90;;;;;;5075219;28;20036;-78
2023/03/30 05:09:28;;;;;;;6.70;1.00;;;13.70;99.90;;;;;;5092691;28;20035;-79
2023/03/30 05:11:54;;;;;;;5.32;1.10;;;13.60;99.90;;;;;;5074803;28;20036;-78
2023/03/30 05:14:20;;;;;;;4.72;0.88;;;13.50;99.90;;;;;;5074897;28;20453;-78
2023/03/30 05:16:46;;;;;;;10.02;1.45;;;13.40;99.90;;;;;;5074949;28;20028;-78
2023/03/30 05:19:12;;;;;;;6.95;1.10;;;13.40;99.90;;;;;;5075052;28;20379;-78
2023/03/30 05:21:37;;;;;;;8.70;1.60;;;13.30;99.90;;;;;;5092920;28;20036;-77
2023/03/30 05:24:04;;;;;;;6.38;1.40;;;13.30;99.90;;;;;;5092844;28;20111;-78
2023/03/30 05:26:29;;;;;;;6.68;1.30;;;13.30;99.90;;;;;;5057769;28;20058;-78
2023/03/30 05:28:56;;;;;;;4.85;1.23;;;13.20;99.90;;;;;;5074357;28;20028;-77
2023/03/30 05:31:21;;;;;;;5.78;1.50;;;13.20;99.90;;;;;;5076435;28;20027;-77
2023/03/30 05:33:47;;;;;;;7.32;1.92;;;13.20;99.90;;;;;;5077534;28;20064;-77
2023/03/30 05:36:13;;;;;;;6.65;1.65;;;13.20;99.90;;;;;;5078174;28;20074;-77
2023/03/30 05:38:39;;;;;;;6.97;1.60;;;13.20;99.90;;;;;;5077726;28;20039;-77
2023/03/30 05:41:05;;;;;;;7.88;1.95;;;13.20;99.90;;;;;;5077937;28;20077;-78
2023/03/30 05:43:31;;;;;;;11.10;1.73;;;13.10;99.90;;;;;;5079082;28;20491;-79
2023/03/30 05:45:57;;;;;;;6.55;1.70;;;13.10;99.90;;;;;;5054083;28;20044;-79
2023/03/30 05:48:23;;;;;;;6.38;1.65;;;13.10;99.90;;;;;;5047298;28;20028;-79
2023/03/30 05:50:49;;;;;;;6.55;2.00;;;13.10;99.90;;;;;;5060952;28;20039;-79
2023/03/30 05:53:15;;;;;;;5.75;2.13;;;13.10;99.90;;;;;;5062039;28;20040;-79
2023/03/30 05:55:48;;;;;;;6.55;1.63;;;13.10;99.90;;;;;;5062301;28;20024;-79
2023/03/30 05:58:15;;;;;;;6.53;2.05;;;13.10;99.90;;;;;;5047186;28;20102;-79
2023/03/30 06:00:42;;;;;;;7.15;1.70;;;13.10;99.90;;;;;;5077744;28;20029;-79
2023/03/30 06:03:09;;;;;;;7.00;2.00;;;13.10;99.90;;;;;;5043830;28;20032;-79
2023/03/30 06:05:37;;;;;;;8.40;2.05;;;13.10;99.90;;;;;;5044449;28;20457;-78
2023/03/30 06:08:07;;;;;;;9.77;2.20;;;13.00;99.90;;;;;;5059019;28;20039;-79
2023/03/30 06:10:33;;;;;;;9.20;2.00;;;13.00;99.90;;;;;;5060531;28;20028;-79
2023/03/30 06:12:59;;;;;;;7.05;1.88;;;13.00;99.90;;;;;;5057968;28;20178;-81
2023/03/30 06:15:31;;;;;;;6.68;2.15;;;13.00;99.90;;;;;;5048567;28;20032;-79
2023/03/30 06:17:58;;;;;;;6.90;2.10;;;13.10;99.90;;;;;;5048574;28;20032;-81
2023/03/30 06:20:24;;;;;;;8.45;2.10;;;13.10;99.90;;;;;;5060411;28;20032;-80
2023/03/30 06:22:50;;;;;;;10.23;2.10;;;13.00;99.90;;;;;;5088756;28;20027;-81
2023/03/30 06:25:19;;;;;;;8.10;1.85;;;13.10;99.90;;;;;;5084759;28;20513;-84
2023/03/30 06:27:46;;;;;;;8.38;1.83;;;13.10;99.90;;;;;;5065485;28;20427;-82
2023/03/30 06:30:13;;;;;;;9.98;1.88;;;13.10;99.90;;;;;;5086910;28;20020;-83
2023/03/30 06:32:38;;;;;;;11.77;2.10;;;13.10;99.90;;;;;;5100568;28;20032;-81
2023/03/30 06:35:05;;;;;;;12.23;1.92;;;13.10;99.90;;;;;;5082333;28;20051;-83
2023/03/30 06:37:31;;;;;;;9.88;2.00;;;13.10;99.90;;;;;;5088510;28;20032;-85
2023/03/30 06:39:57;;;;;;;10.02;1.67;;;13.10;99.90;;;;;;5104618;28;20046;-83
2023/03/30 06:42:26;;;;;;;10.75;1.95;;;13.10;99.90;;;;;;5108152;28;20450;-85
2023/03/30 06:44:52;;;;;;;13.20;2.00;;;13.10;99.90;;;;;;5086138;28;20051;-84
2023/03/30 06:47:18;;;;;;;9.95;2.00;;;13.10;99.90;;;;;;5066213;28;20036;-85
2023/03/30 06:49:44;;;;;;;8.82;2.05;;;13.10;99.90;;;;;;5079392;28;20110;-79
2023/03/30 06:52:11;;;;;;;7.95;1.70;;;13.20;99.90;;;;;;5097297;28;20046;-78
2023/03/30 06:54:37;;;;;;;11.80;2.30;;;13.10;99.90;;;;;;5055580;28;20058;-77
2023/03/30 06:57:03;;;;;;;14.40;2.30;;;13.20;99.90;;;;;;5068711;28;20063;-79
2023/03/30 06:59:29;;;;;;;7.15;1.77;;;13.10;99.90;;;;;;5095228;28;20112;-77
2023/03/30 07:01:54;;;;;;;12.77;2.20;;;13.10;99.90;;;;;;5070826;28;20028;-76
2023/03/30 07:04:20;;;;;;;11.63;1.92;;;13.10;99.90;;;;;;5087444;28;20364;-75
2023/03/30 07:06:46;;;;;;;9.85;1.75;;;13.10;99.90;;;;;;5063401;28;20059;-75
2023/03/30 07:09:12;;;;;;;14.15;2.65;;;13.00;99.90;;;;;;5076392;28;20472;-75
2023/03/30 07:11:38;;;;;;;13.07;2.28;;;13.00;99.90;;;;;;5088117;28;20452;-75
2023/03/30 07:14:04;;;;;;;8.00;2.08;;;13.00;99.90;;;;;;5091393;28;20107;-75
2023/03/30 07:16:30;;;;;;;12.95;2.53;;;13.00;99.90;;;;;;5069157;28;20019;-75
2023/03/30 07:18:56;;;;;;;12.35;2.40;;;13.00;99.90;;;;;;5092327;28;20082;-74
2023/03/30 07:21:22;;;;;;;13.40;4.57;;;13.00;99.90;;;;;;5070751;28;20117;-76
2023/03/30 07:23:48;;;;;;;14.88;3.17;;;13.10;99.90;;;;;;5084136;28;20100;-76
2023/03/30 07:26:13;;;;;;;13.13;2.95;;;13.10;99.90;;;;;;5083286;28;20052;-76
2023/03/30 07:28:39;;;;;;;13.20;2.33;;;13.20;99.90;;;;;;5062238;28;20388;-75
2023/03/30 07:31:12;;;;;;;12.05;2.20;;;13.30;99.90;;;;;;5058621;28;20036;-76
2023/03/30 07:33:38;;;;;;;9.07;2.20;;;13.40;99.90;;;;;;5094033;28;20464;-76
2023/03/30 07:36:04;;;;;;;9.23;1.63;;;13.50;99.90;;;;;;5076114;28;20020;-75
2023/03/30 07:38:31;;;;;;;11.18;1.75;;;13.60;99.90;;;;;;5088157;28;20089;-76
2023/03/30 07:40:56;;;;;;;10.63;1.92;;;13.60;99.90;;;;;;5059604;28;20047;-76
2023/03/30 07:43:22;;;;;;;14.38;2.65;;;13.60;99.90;;;;;;5089947;28;20035;-76
2023/03/30 07:45:48;;;;;;;9.15;1.98;;;13.60;99.90;;;;;;5030049;28;20101;-75
2023/03/30 07:48:13;;;;;;;10.68;2.53;;;13.50;99.90;;;;;;5089565;28;20482;-76
2023/03/30 07:50:39;;;;;;;13.00;2.17;;;13.50;99.90;;;;;;5078815;28;20028;-76
2023/03/30 07:53:05;;;;;;;9.45;1.60;;;13.50;99.90;;;;;;5070911;28;20035;-75
2023/03/30 07:55:31;;;;;;;9.13;1.77;;;13.50;99.90;;;;;;5072754;28;20029;-76
2023/03/30 07:57:57;;;;;;;12.50;1.75;;;13.50;99.90;;;;;;5081392;28;20036;-77
2023/03/30 08:00:23;;;;;;;9.63;1.60;;;13.50;99.90;;;;;;5090881;28;20043;-77
2023/03/30 08:02:49;;;;;;;11.25;2.15;;;13.50;99.90;;;;;;5065206;28;20035;-77
2023/03/30 08:05:16;;;;;;;13.88;2.08;;;13.50;99.90;;;;;;5041711;28;20437;-77
2023/03/30 08:07:43;;;;;;;17.98;2.47;;;13.50;99.90;;;;;;5081341;28;20040;-76
2023/03/30 08:10:09;;;;;;;10.80;1.67;;;13.40;99.90;;;;;;5093407;28;20024;-76
2023/03/30 08:12:35;;;;;;;17.88;2.17;;;13.50;99.90;;;;;;5075526;28;20024;-76
2023/03/30 08:15:02;;;;;;;16.60;2.92;;;13.40;99.90;;;;;;5093575;28;20081;-76
2023/03/30 08:17:28;;;;;;;14.68;2.05;;;13.50;99.90;;;;;;5075848;28;20111;-77
2023/03/30 08:19:55;;;;;;;14.75;1.75;;;13.50;99.90;;;;;;5093902;28;20461;-76
2023/03/30 08:22:21;;;;;;;14.05;2.08;;;13.50;99.90;;;;;;5093882;28;20024;-76
2023/03/30 08:24:47;;;;;;;19.67;3.30;;;13.50;99.90;;;;;;5058214;28;20483;-76
2023/03/30 08:27:13;;;;;;;13.45;1.75;;;13.60;99.90;;;;;;5075969;28;20028;-76
2023/03/30 08:29:39;;;;;;;17.48;2.80;;;13.60;99.90;;;;;;5075302;28;20024;-76
2023/03/30 08:32:05;;;;;;;13.00;1.83;;;13.60;99.90;;;;;;5074150;28;20396;-76
2023/03/30 08:34:31;;;;;;;18.73;2.25;;;13.70;99.90;;;;;;5056131;28;20519;-75
2023/03/30 08:36:57;;;;;;;19.38;2.80;;;13.70;99.90;;;;;;5084867;28;20100;-79
2023/03/30 08:39:23;;;;;;;15.52;2.17;;;13.80;99.90;;;;;;5062391;28;20299;-77
2023/03/30 08:42:27;;;;;;;17.75;2.22;;;13.90;99.90;;;;;;5059428;28;20123;-79
2023/03/30 08:44:56;;;;;;;17.38;2.50;;;14.00;99.90;;;;;;5061913;28;20400;-79
2023/03/30 08:47:35;;;;;;;17.15;2.60;;;14.00;99.90;;;;;;5077362;28;20021;-80
2023/03/30 08:50:30;;;;;;;15.75;2.35;;;14.00;99.90;;;;;;5071916;28;20028;-81
2023/03/30 08:52:57;;;;;;;15.88;2.72;;;14.00;99.90;;;;;;5082004;28;20040;-80
2023/03/30 08:55:46;;;;;;;15.98;2.50;;;13.90;99.90;;;;;;5089338;28;20033;-81
2023/03/30 08:58:45;;;;;;;17.92;2.40;;;13.90;99.90;;;;;;5082754;28;20032;-82
2023/03/30 09:01:25;;;;;;;21.42;3.75;;;13.80;99.90;;;;;;5089029;28;20107;-82
2023/03/30 09:04:03;;;;;;;21.35;2.42;;;13.80;99.90;;;;;;5064664;28;20035;-86
2023/03/30 09:06:38;;;;;;;17.75;2.85;;;13.70;99.90;;;;;;5074715;28;20028;-84
2023/03/30 09:09:04;;;;;;;15.77;2.33;;;13.60;99.90;;;;;;5071290;28;20078;-84
2023/03/30 09:11:34;;;;;;;16.95;1.85;;;13.60;99.90;;;;;;5078678;28;20032;-84
2023/03/30 09:14:04;;;;;;;20.88;2.72;;;13.50;99.90;;;;;;5100224;28;20444;-84
2023/03/30 09:16:45;;;;;;;17.63;2.97;;;13.50;99.90;;;;;;5098704;28;20024;-84
2023/03/30 09:19:21;;;;;;;20.60;2.55;;;13.50;99.90;;;;;;5098692;28;20069;-81
2023/03/30 09:21:52;;;;;;;21.77;2.50;;;13.50;99.90;;;;;;5097388;28;20034;-84
2023/03/30 09:24:23;;;;;;;13.63;2.45;;;13.40;99.90;;;;;;5097262;28;20027;-83
2023/03/30 09:26:56;;;;;;;14.23;2.50;;;13.30;99.90;;;;;;5066556;28;20024;-82
2023/03/30 09:29:32;;;;;;;18.92;3.00;;;13.10;99.90;;;;;;5067167;28;20028;-85
2023/03/30 09:32:10;;;;;;;17.15;3.33;;;13.00;99.90;;;;;;5086020;28;20388;-86
2023/03/30 09:34:44;;;;;;;23.45;3.38;;;13.00;99.90;;;;;;5067401;28;20418;-85
2023/03/30 09:37:12;;;;;;;16.58;2.80;;;13.00;99.90;;;;;;5073689;28;20063;-86
2023/03/30 09:39:40;;;;;;;24.15;4.35;;;13.00;99.90;;;;;;5093443;28;20078;-82
2023/03/30 09:42:35;;;;;;;23.25;4.85;;;13.10;99.90;;;;;;5090138;28;20074;-83
2023/03/30 09:45:08;;;;;;;26.85;3.20;;;13.30;99.90;;;;;;5077751;28;20039;-84
2023/03/30 09:47:37;;;;;;;23.52;5.47;;;13.50;99.90;;;;;;5069939;28;20024;-82
2023/03/30 09:50:05;;;;;;;20.08;3.15;;;13.50;99.90;;;;;;5078688;28;20043;-82
2023/03/30 09:52:35;;;;;;;17.83;3.42;;;13.50;99.90;;;;;;5096621;28;20032;-83
2023/03/30 09:55:21;;;;;;;22.52;2.95;;;13.50;99.90;;;;;;5078319;28;20031;-82
2023/03/30 09:57:48;;;;;;;21.85;3.42;;;13.50;99.90;;;;;;5078484;28;20021;-82
2023/03/30 10:00:32;;;;;;;17.65;3.42;;;13.60;99.90;;;;;;5078515;28;20384;-82
2023/03/30 10:03:04;;;;;;;19.73;3.38;;;13.70;99.90;;;;;;5078191;28;20456;-82
2023/03/30 10:05:32;;;;;;;24.58;3.35;;;13.80;99.90;;;;;;5078120;28;20414;-82
2023/03/30 10:08:01;;;;;;;21.48;3.35;;;13.80;99.90;;;;;;5078276;28;20104;-82
2023/03/30 10:10:36;;;;;;;19.95;3.10;;;13.90;99.90;;;;;;5077602;28;20028;-82
2023/03/30 10:13:11;;;;;;;27.85;3.50;;;14.10;99.90;;;;;;5096290;28;20423;-82
2023/03/30 10:15:39;;;;;;;25.08;3.20;;;14.30;99.90;;;;;;5095655;28;20031;-82
2023/03/30 10:18:36;;;;;;;23.25;3.55;;;14.40;99.90;;;;;;5077954;28;20043;-82
2023/03/30 10:21:16;;;;;;;22.90;3.28;;;14.50;99.90;;;;;;5096391;28;20051;-81
2023/03/30 10:23:45;;;;;;;16.48;3.05;;;14.50;99.90;;;;;;5095662;28;20031;-83
2023/03/30 10:26:19;;;;;;;18.83;3.28;;;14.50;99.90;;;;;;5078023;28;20032;-82
2023/03/30 10:28:52;;;;;;;17.23;3.13;;;14.40;99.90;;;;;;5077651;28;20028;-82
2023/03/30 10:31:18;;;;;;;22.67;3.72;;;14.30;99.90;;;;;;5096624;28;20028;-81
2023/03/30 10:33:44;;;;;;;23.02;3.95;;;14.20;99.90;;;;;;5077310;28;20416;-82
2023/03/30 10:36:13;;;;;;;18.23;3.20;;;14.20;99.90;;;;;;5061562;28;20028;-81
2023/03/30 10:38:40;;;;;;;24.88;3.83;;;14.10;99.90;;;;;;5078182;28;20024;-82
2023/03/30 10:41:10;;;;;;;16.33;3.20;;;14.10;99.90;;;;;;5075892;28;20051;-82
2023/03/30 10:43:37;;;;;;;22.02;3.03;;;14.20;99.90;;;;;;5077744;28;20028;-82
2023/03/30 10:46:17;;;;;;;25.63;3.67;;;14.20;99.90;;;;;;5095267;28;20480;-80
2023/03/30 10:48:47;;;;;;;16.27;3.08;;;14.30;99.90;;;;;;5077613;28;20486;-82
2023/03/30 10:51:20;;;;;;;23.58;3.65;;;14.30;99.90;;;;;;5095906;28;20062;-82
2023/03/30 10:54:08;;;;;;;19.58;3.08;;;14.40;99.90;;;;;;5077633;28;20028;-81
2023/03/30 10:56:38;;;;;;;20.83;3.10;;;14.60;99.90;;;;;;5095767;28;20024;-82
2023/03/30 10:59:35;;;;;;;21.98;3.45;;;14.60;99.90;;;;;;5095599;28;20032;-82
2023/03/30 11:02:38;;;;;;;17.50;2.92;;;14.60;99.90;;;;;;5095608;28;20036;-81
2023/03/30 11:05:28;;;;;;;23.15;3.45;;;14.50;99.90;;;;;;5095514;28;20035;-81
2023/03/30 11:08:01;;;;;;;26.27;4.20;;;14.50;99.90;;;;;;5077167;28;20540;-82
2023/03/30 11:10:30;;;;;;;24.88;3.85;;;14.50;99.90;;;;;;5094849;28;20032;-82
2023/03/30 11:13:26;;;;;;;27.58;4.00;;;14.40;99.90;;;;;;5095134;28;20031;-82
2023/03/30 11:16:16;;;;;;;19.05;3.22;;;14.40;99.90;;;;;;5081599;28;20040;-81
2023/03/30 11:18:54;;;;;;;22.90;3.60;;;14.50;99.90;;;;;;5095500;28;20081;-80
2023/03/30 11:21:27;;;;;;;25.65;4.40;;;14.50;99.90;;;;;;5095040;28;20056;-82
2023/03/30 11:23:53;;;;;;;26.38;4.03;;;14.60;99.90;;;;;;5077284;28;20051;-81
2023/03/30 11:26:46;;;;;;;24.88;3.67;;;14.60;99.90;;;;;;5076795;28;20080;-82
2023/03/30 11:29:36;;;;;;;23.93;4.47;;;14.70;99.90;;;;;;5094723;28;20067;-82
2023/03/30 11:32:26;;;;;;;26.38;4.15;;;14.90;99.90;;;;;;5094553;28;20032;-83
2023/03/30 11:34:54;;;;;;;19.80;3.78;;;15.10;99.90;;;;;;5094611;28;20127;-82
2023/03/30 11:37:41;;;;;;;19.55;3.40;;;15.30;99.70;;;;;;5076533;28;20020;-81
2023/03/30 11:40:20;;;;;;;25.10;3.40;;;15.40;98.30;;;;;;5076953;28;20039;-83
2023/03/30 11:42:46;;;;;;;20.23;2.85;;;15.30;98.20;;;;;;5094897;28;20028;-82
2023/03/30 11:45:44;;;;;;;17.10;2.75;;;15.20;98.20;;;;;;5094657;28;20028;-82
2023/03/30 11:48:26;;;;;;;16.70;2.67;;;15.20;98.40;;;;;;5051296;28;20036;-82
2023/03/30 11:51:04;;;;;;;19.23;2.73;;;15.10;98.50;;;;;;5076517;28;20032;-81
2023/03/30 11:53:32;;;;;;;18.77;3.05;;;15.20;98.30;;;;;;5076266;28;20758;-83
2023/03/30 11:56:05;;;;;;;19.98;2.47;;;15.20;97.80;;;;;;5076425;28;20110;-82
2023/03/30 11:58:42;;;;;;;18.02;2.70;;;15.10;97.50;;;;;;5094762;28;20073;-82
2023/03/30 12:01:19;;;;;;;23.92;3.38;;;15.10;97.90;;;;;;5094152;28;20024;-81
2023/03/30 12:03:53;;;;;;;21.17;2.97;;;15.10;98.20;;;;;;5094011;28;20036;-81
2023/03/30 12:06:43;;;;;;;16.67;2.60;;;15.20;98.10;;;;;;5093915;28;20085;-82
2023/03/30 12:09:27;;;;;;;20.95;3.08;;;15.20;97.80;;;;;;5075773;28;20028;-82
2023/03/30 12:12:14;;;;;;;15.02;2.28;;;15.10;98.10;;;;;;5093656;28;20032;-82
2023/03/30 12:15:14;;;;;;;21.27;2.88;;;15.10;97.90;;;;;;5075964;28;20024;-82
2023/03/30 12:17:59;;;;;;;21.80;3.28;;;15.10;97.20;;;;;;5076062;28;20028;-82
2023/03/30 12:20:50;;;;;;;16.95;2.33;;;15.10;97.10;;;;;;5076123;28;20081;-82
2023/03/30 12:23:19;;;;;;;18.77;2.85;;;15.10;97.10;;;;;;5075778;28;20035;-83
2023/03/30 12:26:18;;;;;;;18.20;2.70;;;15.20;97.10;;;;;;5076091;28;20020;-82
2023/03/30 12:29:03;;;;;;;15.10;2.30;;;15.10;97.10;;;;;;5075970;28;20028;-82
2023/03/30 12:32:02;;;;;;;21.90;3.33;;;15.10;97.20;;;;;;5076102;28;20024;-82
2023/03/30 12:34:40;;;;;;;22.15;2.67;;;15.20;97.20;;;;;;5075303;28;20185;-83
2023/03/30 12:37:08;;;;;;;22.27;2.42;;;15.20;97.40;;;;;;5093546;28;20020;-82
2023/03/30 12:39:52;;;;;;;14.13;2.38;;;15.20;96.90;;;;;;5093311;28;20047;-82
2023/03/30 12:42:33;;;;;;;13.73;2.70;;;15.20;96.30;;;;;;5075739;28;20032;-83
2023/03/30 12:45:14;;;;;;;18.58;2.55;;;15.20;96.20;;;;;;5093462;28;20388;-83
2023/03/30 12:48:17;;;;;;;17.83;2.55;;;15.20;96.50;;;;;;5075768;28;20027;-82
2023/03/30 12:51:08;;;;;;;19.90;2.53;;;15.30;96.70;;;;;;5075656;28;20036;-83
2023/03/30 12:53:51;;;;;;;17.52;3.30;;;15.40;96.60;;;;;;5075776;28;20438;-82
2023/03/30 12:56:30;;;;;;;20.30;2.88;;;15.50;96.60;;;;;;5093769;28;20062;-83
2023/03/30 12:59:02;;;;;;;17.23;2.80;;;15.50;96.40;;;;;;5093474;28;20028;-80
2023/03/30 13:01:51;;;;;;;16.90;2.88;;;15.50;96.70;;;;;;5093794;28;20051;-83
2023/03/30 13:04:20;;;;;;;18.52;3.22;;;15.50;96.60;;;;;;5075533;28;20021;-83
2023/03/30 13:06:51;;;;;;;21.27;3.30;;;15.50;96.60;;;;;;5075255;28;20025;-83